sensor_id;sensor_type;location;lat;lon;timestamp;noise_LAeq;noise_LA_min;noise_LA_max;noise_LA01;noise_LA95
68599;Laerm;18038;50.166;18.908;2024-03-22T00:02:19;36.02;34.53;41.26;;
68599;Laerm;18038;50.166;18.908;2024-03-22T00:05:23;41.83;34.05;57.80;;
68599;Laerm;18038;50.166;18.908;2024-03-22T00:08:27;40.34;34.15;57.85;;
68599;Laerm;18038;50.166;18.908;2024-03-22T00:11:33;39.32;34.08;52.71;;
68599;Laerm;18038;50.166;18.908;2024-03-22T00:14:37;35.14;33.79;43.83;;
68599;Laerm;18038;50.166;18.908;2024-03-22T00:17:42;38.37;33.69;53.64;;
68599;Laerm;18038;50.166;18.908;2024-03-22T00:20:46;37.52;34.31;50.08;;
68599;Laerm;18038;50.166;18.908;2024-03-22T00:23:50;39.62;33.94;55.51;;
68599;Laerm;18038;50.166;18.908;2024-03-22T00:26:57;35.04;33.78;40.90;;
68599;Laerm;18038;50.166;18.908;2024-03-22T00:30:00;35.25;33.49;38.66;;
68599;Laerm;18038;50.166;18.908;2024-03-22T00:33:05;38.06;33.64;52.74;;
68599;Laerm;18038;50.166;18.908;2024-03-22T00:36:10;34.92;33.39;41.57;;
68599;Laerm;18038;50.166;18.908;2024-03-22T00:39:14;35.02;33.82;38.53;;
68599;Laerm;18038;50.166;18.908;2024-03-22T00:42:20;37.77;33.98;51.30;;
68599;Laerm;18038;50.166;18.908;2024-03-22T00:45:24;35.00;33.88;37.99;;
68599;Laerm;18038;50.166;18.908;2024-03-22T00:48:27;34.97;33.58;40.67;;
68599;Laerm;18038;50.166;18.908;2024-03-22T00:51:32;35.38;34.06;38.89;;
68599;Laerm;18038;50.166;18.908;2024-03-22T00:54:35;34.70;33.48;37.70;;
68599;Laerm;18038;50.166;18.908;2024-03-22T00:57:42;34.79;33.43;51.89;;
68599;Laerm;18038;50.166;18.908;2024-03-22T01:00:46;35.07;33.87;39.44;;
68599;Laerm;18038;50.166;18.908;2024-03-22T01:03:51;34.53;33.59;41.05;;
68599;Laerm;18038;50.166;18.908;2024-03-22T01:06:54;34.55;33.41;43.66;;
68599;Laerm;18038;50.166;18.908;2024-03-22T01:09:58;35.18;33.55;51.45;;
68599;Laerm;18038;50.166;18.908;2024-03-22T01:13:04;35.30;33.70;49.07;;
68599;Laerm;18038;50.166;18.908;2024-03-22T01:16:09;38.77;33.76;55.06;;
68599;Laerm;18038;50.166;18.908;2024-03-22T01:19:12;39.15;33.69;55.22;;
68599;Laerm;18038;50.166;18.908;2024-03-22T01:22:18;35.13;33.49;43.10;;
68599;Laerm;18038;50.166;18.908;2024-03-22T01:25:21;39.65;33.57;55.44;;
68599;Laerm;18038;50.166;18.908;2024-03-22T01:28:28;38.42;33.90;54.31;;
68599;Laerm;18038;50.166;18.908;2024-03-22T01:31:31;38.82;34.07;54.65;;
68599;Laerm;18038;50.166;18.908;2024-03-22T01:34:35;37.57;33.88;48.89;;
68599;Laerm;18038;50.166;18.908;2024-03-22T01:37:39;38.15;33.75;49.44;;
68599;Laerm;18038;50.166;18.908;2024-03-22T01:40:43;39.36;33.89;54.69;;
68599;Laerm;18038;50.166;18.908;2024-03-22T01:43:49;38.10;34.01;53.24;;
68599;Laerm;18038;50.166;18.908;2024-03-22T01:46:53;37.85;33.79;42.91;;
68599;Laerm;18038;50.166;18.908;2024-03-22T01:49:57;42.05;33.80;56.67;;
68599;Laerm;18038;50.166;18.908;2024-03-22T01:53:02;42.07;33.92;57.37;;
68599;Laerm;18038;50.166;18.908;2024-03-22T01:56:07;35.84;33.92;47.35;;
68599;Laerm;18038;50.166;18.908;2024-03-22T01:59:15;36.31;34.15;42.84;;
68599;Laerm;18038;50.166;18.908;2024-03-22T02:02:19;38.89;33.79;52.36;;
68599;Laerm;18038;50.166;18.908;2024-03-22T02:05:24;36.16;33.95;47.04;;
68599;Laerm;18038;50.166;18.908;2024-03-22T02:08:27;35.43;33.38;48.71;;
68599;Laerm;18038;50.166;18.908;2024-03-22T02:11:31;35.37;33.82;41.08;;
68599;Laerm;18038;50.166;18.908;2024-03-22T02:14:37;35.46;33.78;42.52;;
68599;Laerm;18038;50.166;18.908;2024-03-22T02:17:41;37.62;33.96;49.68;;
68599;Laerm;18038;50.166;18.908;2024-03-22T02:20:45;35.71;33.84;50.55;;
68599;Laerm;18038;50.166;18.908;2024-03-22T02:23:51;39.55;33.72;53.47;;
68599;Laerm;18038;50.166;18.908;2024-03-22T02:26:55;35.96;33.97;42.00;;
68599;Laerm;18038;50.166;18.908;2024-03-22T02:29:59;40.40;34.21;55.90;;
68599;Laerm;18038;50.166;18.908;2024-03-22T02:33:03;38.22;33.93;55.92;;
68599;Laerm;18038;50.166;18.908;2024-03-22T02:36:08;40.52;34.11;58.78;;
68599;Laerm;18038;50.166;18.908;2024-03-22T02:39:14;38.50;34.50;58.43;;
68599;Laerm;18038;50.166;18.908;2024-03-22T02:42:18;44.21;34.61;58.40;;
68599;Laerm;18038;50.166;18.908;2024-03-22T02:45:22;36.35;33.86;47.81;;
68599;Laerm;18038;50.166;18.908;2024-03-22T02:48:26;42.09;34.22;58.35;;
68599;Laerm;18038;50.166;18.908;2024-03-22T02:51:29;35.57;33.69;42.97;;
68599;Laerm;18038;50.166;18.908;2024-03-22T02:54:36;40.08;33.82;55.29;;
68599;Laerm;18038;50.166;18.908;2024-03-22T02:57:39;43.31;33.85;59.11;;
68599;Laerm;18038;50.166;18.908;2024-03-22T03:00:43;36.77;34.00;50.29;;
68599;Laerm;18038;50.166;18.908;2024-03-22T03:03:46;39.02;34.44;52.72;;
68599;Laerm;18038;50.166;18.908;2024-03-22T03:06:51;41.23;34.59;52.71;;
68599;Laerm;18038;50.166;18.908;2024-03-22T03:09:56;36.66;34.98;45.92;;
68599;Laerm;18038;50.166;18.908;2024-03-22T03:13:01;40.19;34.95;54.99;;
68599;Laerm;18038;50.166;18.908;2024-03-22T03:16:05;43.09;35.20;55.58;;
68599;Laerm;18038;50.166;18.908;2024-03-22T03:19:09;43.22;35.62;56.42;;
68599;Laerm;18038;50.166;18.908;2024-03-22T03:22:12;40.96;35.53;52.50;;
68599;Laerm;18038;50.166;18.908;2024-03-22T03:25:19;40.56;35.53;52.85;;
68599;Laerm;18038;50.166;18.908;2024-03-22T03:28:23;42.51;35.26;57.86;;
68599;Laerm;18038;50.166;18.908;2024-03-22T03:31:27;43.21;35.06;57.49;;
68599;Laerm;18038;50.166;18.908;2024-03-22T03:34:30;44.88;35.67;56.51;;
68599;Laerm;18038;50.166;18.908;2024-03-22T03:37:34;41.62;35.38;53.50;;
68599;Laerm;18038;50.166;18.908;2024-03-22T03:40:40;38.47;35.74;48.96;;
68599;Laerm;18038;50.166;18.908;2024-03-22T03:43:44;44.19;36.14;57.57;;
68599;Laerm;18038;50.166;18.908;2024-03-22T03:46:48;45.07;35.54;57.49;;
68599;Laerm;18038;50.166;18.908;2024-03-22T03:49:52;44.41;36.11;57.74;;
68599;Laerm;18038;50.166;18.908;2024-03-22T03:52:55;44.89;36.42;54.83;;
68599;Laerm;18038;50.166;18.908;2024-03-22T03:56:03;45.18;35.92;57.77;;
68599;Laerm;18038;50.166;18.908;2024-03-22T03:59:06;47.49;35.90;60.53;;
68599;Laerm;18038;50.166;18.908;2024-03-22T04:02:10;45.21;36.44;56.32;;
68599;Laerm;18038;50.166;18.908;2024-03-22T04:05:13;48.76;37.12;59.44;;
68599;Laerm;18038;50.166;18.908;2024-03-22T04:08:18;50.52;37.31;70.08;;
68599;Laerm;18038;50.166;18.908;2024-03-22T04:11:24;48.34;37.69;59.10;;
68599;Laerm;18038;50.166;18.908;2024-03-22T04:14:28;46.78;36.96;56.99;;
68599;Laerm;18038;50.166;18.908;2024-03-22T04:17:31;49.50;37.31;60.57;;
68599;Laerm;18038;50.166;18.908;2024-03-22T04:20:35;45.67;36.75;57.60;;
68599;Laerm;18038;50.166;18.908;2024-03-22T04:23:39;46.99;36.75;57.39;;
68599;Laerm;18038;50.166;18.908;2024-03-22T04:26:45;49.64;39.02;61.74;;
68599;Laerm;18038;50.166;18.908;2024-03-22T04:29:49;47.98;38.18;58.04;;
68599;Laerm;18038;50.166;18.908;2024-03-22T04:32:53;49.36;39.39;59.23;;
68599;Laerm;18038;50.166;18.908;2024-03-22T04:35:57;48.58;37.92;57.97;;
68599;Laerm;18038;50.166;18.908;2024-03-22T04:39:02;48.19;38.15;55.25;;
68599;Laerm;18038;50.166;18.908;2024-03-22T04:42:08;48.99;38.22;57.96;;
68599;Laerm;18038;50.166;18.908;2024-03-22T04:45:12;48.44;39.26;57.59;;
68599;Laerm;18038;50.166;18.908;2024-03-22T04:48:19;50.16;38.83;59.07;;
68599;Laerm;18038;50.166;18.908;2024-03-22T04:51:23;47.88;39.95;57.47;;
68599;Laerm;18038;50.166;18.908;2024-03-22T04:54:26;48.97;39.22;59.32;;
68599;Laerm;18038;50.166;18.908;2024-03-22T04:57:33;49.47;39.31;59.45;;
68599;Laerm;18038;50.166;18.908;2024-03-22T05:00:37;50.15;40.45;58.39;;
68599;Laerm;18038;50.166;18.908;2024-03-22T05:03:41;47.92;39.54;60.99;;
68599;Laerm;18038;50.166;18.908;2024-03-22T05:06:44;47.15;38.88;56.31;;
68599;Laerm;18038;50.166;18.908;2024-03-22T05:09:49;50.48;39.80;60.30;;
68599;Laerm;18038;50.166;18.908;2024-03-22T05:12:55;49.48;39.95;59.13;;
68599;Laerm;18038;50.166;18.908;2024-03-22T05:15:59;49.05;40.53;57.86;;
68599;Laerm;18038;50.166;18.908;2024-03-22T05:19:03;49.57;39.52;57.92;;
68599;Laerm;18038;50.166;18.908;2024-03-22T05:22:07;49.82;39.25;60.06;;
68599;Laerm;18038;50.166;18.908;2024-03-22T05:25:10;48.81;39.39;64.61;;
68599;Laerm;18038;50.166;18.908;2024-03-22T05:28:20;48.50;39.33;61.15;;
68599;Laerm;18038;50.166;18.908;2024-03-22T05:31:23;49.85;39.68;60.23;;
68599;Laerm;18038;50.166;18.908;2024-03-22T05:34:27;50.15;40.96;59.06;;
68599;Laerm;18038;50.166;18.908;2024-03-22T05:37:31;49.78;39.88;57.26;;
68599;Laerm;18038;50.166;18.908;2024-03-22T05:40:36;49.81;40.54;59.91;;
68599;Laerm;18038;50.166;18.908;2024-03-22T05:43:43;54.18;42.58;64.68;;
68599;Laerm;18038;50.166;18.908;2024-03-22T05:46:47;50.85;41.65;70.18;;
68599;Laerm;18038;50.166;18.908;2024-03-22T05:49:50;51.04;41.34;59.22;;
68599;Laerm;18038;50.166;18.908;2024-03-22T05:52:55;50.36;40.75;58.58;;
68599;Laerm;18038;50.166;18.908;2024-03-22T05:55:58;50.30;40.09;61.53;;
68599;Laerm;18038;50.166;18.908;2024-03-22T05:59:05;50.83;40.76;58.34;;
68599;Laerm;18038;50.166;18.908;2024-03-22T06:02:08;50.56;41.16;57.96;;
68599;Laerm;18038;50.166;18.908;2024-03-22T06:05:13;50.96;41.56;59.36;;
68599;Laerm;18038;50.166;18.908;2024-03-22T06:08:16;50.82;40.72;63.94;;
68599;Laerm;18038;50.166;18.908;2024-03-22T06:11:21;51.36;40.69;59.71;;
68599;Laerm;18038;50.166;18.908;2024-03-22T06:14:27;49.83;41.24;56.66;;
68599;Laerm;18038;50.166;18.908;2024-03-22T06:17:31;50.48;40.99;57.95;;
68599;Laerm;18038;50.166;18.908;2024-03-22T06:20:35;51.90;42.04;60.45;;
68599;Laerm;18038;50.166;18.908;2024-03-22T06:23:39;50.72;42.26;58.26;;
68599;Laerm;18038;50.166;18.908;2024-03-22T06:26:42;52.75;42.61;64.00;;
68599;Laerm;18038;50.166;18.908;2024-03-22T06:29:49;51.21;42.15;57.89;;
68599;Laerm;18038;50.166;18.908;2024-03-22T06:32:52;51.09;42.49;58.36;;
68599;Laerm;18038;50.166;18.908;2024-03-22T06:35:56;52.15;43.21;58.07;;
68599;Laerm;18038;50.166;18.908;2024-03-22T06:38:59;53.05;43.11;65.14;;
68599;Laerm;18038;50.166;18.908;2024-03-22T06:42:04;54.05;45.58;61.70;;
68599;Laerm;18038;50.166;18.908;2024-03-22T06:45:10;54.27;44.39;71.28;;
68599;Laerm;18038;50.166;18.908;2024-03-22T06:48:14;52.29;41.63;64.08;;
68599;Laerm;18038;50.166;18.908;2024-03-22T06:51:18;50.50;42.03;57.96;;
68599;Laerm;18038;50.166;18.908;2024-03-22T06:54:22;50.56;41.10;57.98;;
68599;Laerm;18038;50.166;18.908;2024-03-22T06:57:25;51.96;44.03;58.52;;
68599;Laerm;18038;50.166;18.908;2024-03-22T07:00:32;51.18;42.31;56.09;;
68599;Laerm;18038;50.166;18.908;2024-03-22T07:03:36;52.24;43.44;58.95;;
68599;Laerm;18038;50.166;18.908;2024-03-22T07:06:40;51.53;42.16;63.81;;
68599;Laerm;18038;50.166;18.908;2024-03-22T07:09:44;50.89;40.97;59.38;;
68599;Laerm;18038;50.166;18.908;2024-03-22T07:12:48;52.11;43.00;69.20;;
68599;Laerm;18038;50.166;18.908;2024-03-22T07:15:54;51.01;42.67;58.06;;
68599;Laerm;18038;50.166;18.908;2024-03-22T07:18:59;50.83;41.61;60.39;;
68599;Laerm;18038;50.166;18.908;2024-03-22T07:22:02;50.83;42.12;59.29;;
68599;Laerm;18038;50.166;18.908;2024-03-22T07:25:07;50.94;42.04;63.93;;
68599;Laerm;18038;50.166;18.908;2024-03-22T07:28:11;51.19;43.57;59.30;;
68599;Laerm;18038;50.166;18.908;2024-03-22T07:31:18;49.87;40.20;60.05;;
68599;Laerm;18038;50.166;18.908;2024-03-22T07:34:21;51.62;40.80;62.04;;
68599;Laerm;18038;50.166;18.908;2024-03-22T07:37:25;57.75;40.16;76.33;;
68599;Laerm;18038;50.166;18.908;2024-03-22T07:40:28;57.42;41.48;78.87;;
68599;Laerm;18038;50.166;18.908;2024-03-22T07:43:33;49.27;40.29;56.99;;
68599;Laerm;18038;50.166;18.908;2024-03-22T07:46:39;52.39;43.02;66.44;;
68599;Laerm;18038;50.166;18.908;2024-03-22T07:49:43;50.60;41.66;61.94;;
68599;Laerm;18038;50.166;18.908;2024-03-22T07:52:46;51.29;41.58;63.19;;
68599;Laerm;18038;50.166;18.908;2024-03-22T07:55:50;55.10;40.87;68.35;;
68599;Laerm;18038;50.166;18.908;2024-03-22T07:58:54;50.06;41.07;61.06;;
68599;Laerm;18038;50.166;18.908;2024-03-22T08:02:01;50.07;41.28;58.63;;
68599;Laerm;18038;50.166;18.908;2024-03-22T08:05:07;50.40;40.63;60.13;;
68599;Laerm;18038;50.166;18.908;2024-03-22T08:08:11;49.22;40.64;58.67;;
68599;Laerm;18038;50.166;18.908;2024-03-22T08:11:15;48.98;40.01;61.96;;
68599;Laerm;18038;50.166;18.908;2024-03-22T08:14:19;49.83;40.54;63.90;;
68599;Laerm;18038;50.166;18.908;2024-03-22T08:17:25;49.25;40.37;59.02;;
68599;Laerm;18038;50.166;18.908;2024-03-22T08:20:29;49.41;40.47;60.15;;
68599;Laerm;18038;50.166;18.908;2024-03-22T08:23:32;50.45;39.95;58.89;;
68599;Laerm;18038;50.166;18.908;2024-03-22T08:26:36;52.00;40.91;62.13;;
68599;Laerm;18038;50.166;18.908;2024-03-22T08:29:40;49.50;40.73;57.21;;
68599;Laerm;18038;50.166;18.908;2024-03-22T08:32:47;48.88;39.87;56.77;;
68599;Laerm;18038;50.166;18.908;2024-03-22T08:35:51;51.03;40.12;61.82;;
68599;Laerm;18038;50.166;18.908;2024-03-22T08:38:55;50.66;39.76;62.35;;
68599;Laerm;18038;50.166;18.908;2024-03-22T08:41:58;50.73;41.89;59.40;;
68599;Laerm;18038;50.166;18.908;2024-03-22T08:45:04;49.43;41.12;58.74;;
68599;Laerm;18038;50.166;18.908;2024-03-22T08:48:10;49.40;41.25;61.89;;
68599;Laerm;18038;50.166;18.908;2024-03-22T08:51:14;49.07;41.10;56.69;;
68599;Laerm;18038;50.166;18.908;2024-03-22T08:54:17;49.54;41.46;57.19;;
68599;Laerm;18038;50.166;18.908;2024-03-22T08:57:21;49.27;40.82;56.54;;
68599;Laerm;18038;50.166;18.908;2024-03-22T09:00:25;50.29;41.11;57.62;;
68599;Laerm;18038;50.166;18.908;2024-03-22T09:03:32;49.99;40.09;57.25;;
68599;Laerm;18038;50.166;18.908;2024-03-22T09:06:35;50.44;40.49;59.11;;
68599;Laerm;18038;50.166;18.908;2024-03-22T09:10:24;49.26;41.01;57.90;;
68599;Laerm;18038;50.166;18.908;2024-03-22T09:13:28;49.13;40.30;57.90;;
68599;Laerm;18038;50.166;18.908;2024-03-22T09:16:33;49.12;40.32;57.82;;
68599;Laerm;18038;50.166;18.908;2024-03-22T09:19:38;49.43;40.37;60.90;;
68599;Laerm;18038;50.166;18.908;2024-03-22T09:22:41;52.52;42.57;71.65;;
68599;Laerm;18038;50.166;18.908;2024-03-22T09:25:48;49.56;40.70;60.58;;
68599;Laerm;18038;50.166;18.908;2024-03-22T09:28:51;50.92;41.84;61.43;;
68599;Laerm;18038;50.166;18.908;2024-03-22T09:31:56;49.50;41.63;56.85;;
68599;Laerm;18038;50.166;18.908;2024-03-22T09:34:59;48.66;40.64;60.38;;
68599;Laerm;18038;50.166;18.908;2024-03-22T09:38:03;51.46;41.35;62.20;;
68599;Laerm;18038;50.166;18.908;2024-03-22T09:41:09;50.60;41.89;58.90;;
68599;Laerm;18038;50.166;18.908;2024-03-22T09:44:15;48.61;40.04;57.58;;
68599;Laerm;18038;50.166;18.908;2024-03-22T09:47:21;49.70;40.12;57.38;;
68599;Laerm;18038;50.166;18.908;2024-03-22T09:50:26;51.68;40.78;59.73;;
68599;Laerm;18038;50.166;18.908;2024-03-22T09:55:53;50.14;39.72;59.11;;
68599;Laerm;18038;50.166;18.908;2024-03-22T09:58:59;50.55;39.82;60.80;;
68599;Laerm;18038;50.166;18.908;2024-03-22T10:02:52;49.10;38.76;56.99;;
68599;Laerm;18038;50.166;18.908;2024-03-22T10:05:57;49.71;38.79;60.96;;
68599;Laerm;18038;50.166;18.908;2024-03-22T10:09:02;48.79;39.12;58.54;;
68599;Laerm;18038;50.166;18.908;2024-03-22T10:12:07;49.06;39.53;58.88;;
68599;Laerm;18038;50.166;18.908;2024-03-22T10:15:10;50.20;39.02;63.15;;
68599;Laerm;18038;50.166;18.908;2024-03-22T10:18:18;49.07;39.12;55.67;;
68599;Laerm;18038;50.166;18.908;2024-03-22T10:21:21;48.98;39.72;57.97;;
68599;Laerm;18038;50.166;18.908;2024-03-22T10:27:42;49.38;37.83;60.08;;
68599;Laerm;18038;50.166;18.908;2024-03-22T10:30:50;49.66;37.54;61.32;;
68599;Laerm;18038;50.166;18.908;2024-03-22T10:33:55;49.03;37.89;59.31;;
68599;Laerm;18038;50.166;18.908;2024-03-22T10:37:00;49.19;38.68;58.37;;
68599;Laerm;18038;50.166;18.908;2024-03-22T10:40:05;49.35;38.89;60.78;;
68599;Laerm;18038;50.166;18.908;2024-03-22T10:43:14;48.88;38.96;58.01;;
68599;Laerm;18038;50.166;18.908;2024-03-22T10:46:20;50.28;39.07;61.51;;
68599;Laerm;18038;50.166;18.908;2024-03-22T10:49:27;48.35;38.31;57.69;;
68599;Laerm;18038;50.166;18.908;2024-03-22T10:52:37;49.79;38.92;58.56;;
68599;Laerm;18038;50.166;18.908;2024-03-22T10:55:46;54.39;39.73;75.18;;
68599;Laerm;18038;50.166;18.908;2024-03-22T10:58:53;49.09;37.79;57.86;;
68599;Laerm;18038;50.166;18.908;2024-03-22T11:02:04;52.11;38.76;65.20;;
68599;Laerm;18038;50.166;18.908;2024-03-22T11:05:16;54.16;44.38;64.12;;
68599;Laerm;18038;50.166;18.908;2024-03-22T11:08:26;49.79;39.82;60.21;;
68599;Laerm;18038;50.166;18.908;2024-03-22T11:11:29;49.85;38.72;60.28;;
68599;Laerm;18038;50.166;18.908;2024-03-22T11:14:36;50.24;39.31;59.82;;
68599;Laerm;18038;50.166;18.908;2024-03-22T11:17:39;50.14;38.33;61.94;;
68599;Laerm;18038;50.166;18.908;2024-03-22T11:20:44;50.27;38.62;59.45;;
68599;Laerm;18038;50.166;18.908;2024-03-22T11:23:49;50.02;40.73;62.39;;
68599;Laerm;18038;50.166;18.908;2024-03-22T11:26:53;54.16;42.08;70.73;;
68599;Laerm;18038;50.166;18.908;2024-03-22T11:29:59;50.57;40.21;61.95;;
68599;Laerm;18038;50.166;18.908;2024-03-22T11:33:04;49.61;39.67;58.48;;
68599;Laerm;18038;50.166;18.908;2024-03-22T11:36:09;49.31;40.37;57.19;;
68599;Laerm;18038;50.166;18.908;2024-03-22T11:39:13;49.77;38.50;58.75;;
68599;Laerm;18038;50.166;18.908;2024-03-22T11:45:19;50.92;38.87;70.65;;
68599;Laerm;18038;50.166;18.908;2024-03-22T11:50:21;51.47;39.52;61.11;;
68599;Laerm;18038;50.166;18.908;2024-03-22T11:53:25;50.20;39.55;58.40;;
68599;Laerm;18038;50.166;18.908;2024-03-22T11:56:29;49.03;39.79;57.33;;
68599;Laerm;18038;50.166;18.908;2024-03-22T11:59:33;49.51;38.80;59.43;;
68599;Laerm;18038;50.166;18.908;2024-03-22T12:02:37;49.76;39.43;59.32;;
68599;Laerm;18038;50.166;18.908;2024-03-22T12:05:43;51.81;40.62;68.88;;
68599;Laerm;18038;50.166;18.908;2024-03-22T12:08:47;52.01;39.95;66.38;;
68599;Laerm;18038;50.166;18.908;2024-03-22T12:11:51;52.07;41.31;63.84;;
68599;Laerm;18038;50.166;18.908;2024-03-22T12:14:57;50.86;40.53;58.19;;
68599;Laerm;18038;50.166;18.908;2024-03-22T12:18:01;51.12;39.95;59.68;;
68599;Laerm;18038;50.166;18.908;2024-03-22T12:21:07;50.80;40.41;60.16;;
68599;Laerm;18038;50.166;18.908;2024-03-22T12:24:12;52.64;40.41;62.45;;
68599;Laerm;18038;50.166;18.908;2024-03-22T12:27:15;52.47;42.26;68.83;;
68599;Laerm;18038;50.166;18.908;2024-03-22T12:30:20;54.59;39.17;66.13;;
68599;Laerm;18038;50.166;18.908;2024-03-22T12:33:24;63.68;38.86;81.58;;
68599;Laerm;18038;50.166;18.908;2024-03-22T12:36:31;51.14;39.40;63.87;;
68599;Laerm;18038;50.166;18.908;2024-03-22T12:42:21;50.93;39.85;61.52;;
68599;Laerm;18038;50.166;18.908;2024-03-22T12:45:26;49.99;39.28;57.95;;
68599;Laerm;18038;50.166;18.908;2024-03-22T12:48:29;51.17;41.59;61.87;;
68599;Laerm;18038;50.166;18.908;2024-03-22T12:51:35;53.38;41.60;70.53;;
68599;Laerm;18038;50.166;18.908;2024-03-22T12:54:38;51.72;41.92;58.01;;
68599;Laerm;18038;50.166;18.908;2024-03-22T12:57:45;50.60;39.20;60.23;;
68599;Laerm;18038;50.166;18.908;2024-03-22T13:00:49;52.05;41.18;62.42;;
68599;Laerm;18038;50.166;18.908;2024-03-22T13:03:53;50.20;39.85;58.68;;
68599;Laerm;18038;50.166;18.908;2024-03-22T13:06:57;49.75;40.70;57.21;;
68599;Laerm;18038;50.166;18.908;2024-03-22T13:10:01;52.05;39.14;63.79;;
68599;Laerm;18038;50.166;18.908;2024-03-22T13:13:07;52.33;42.78;63.76;;
68599;Laerm;18038;50.166;18.908;2024-03-22T13:16:11;50.99;40.80;58.28;;
68599;Laerm;18038;50.166;18.908;2024-03-22T13:21:12;52.48;42.42;67.15;;
68599;Laerm;18038;50.166;18.908;2024-03-22T13:24:16;50.90;40.81;57.14;;
68599;Laerm;18038;50.166;18.908;2024-03-22T13:27:19;51.63;39.42;60.66;;
68599;Laerm;18038;50.166;18.908;2024-03-22T13:30:25;50.29;39.89;59.81;;
68599;Laerm;18038;50.166;18.908;2024-03-22T13:33:28;51.34;40.21;65.12;;
68599;Laerm;18038;50.166;18.908;2024-03-22T13:36:35;50.92;39.93;60.27;;
68599;Laerm;18038;50.166;18.908;2024-03-22T13:39:38;50.71;41.74;58.70;;
68599;Laerm;18038;50.166;18.908;2024-03-22T13:42:42;50.45;40.04;58.87;;
68599;Laerm;18038;50.166;18.908;2024-03-22T13:45:49;51.02;41.43;57.37;;
68599;Laerm;18038;50.166;18.908;2024-03-22T13:48:54;49.68;41.74;60.63;;
68599;Laerm;18038;50.166;18.908;2024-03-22T13:52:01;51.42;41.50;58.54;;
68599;Laerm;18038;50.166;18.908;2024-03-22T13:55:07;59.85;42.62;78.69;;
68599;Laerm;18038;50.166;18.908;2024-03-22T13:58:11;51.60;42.03;59.81;;
68599;Laerm;18038;50.166;18.908;2024-03-22T14:04:05;52.27;41.51;67.08;;
68599;Laerm;18038;50.166;18.908;2024-03-22T14:07:09;50.70;40.32;59.54;;
68599;Laerm;18038;50.166;18.908;2024-03-22T14:10:13;50.74;41.20;59.97;;
68599;Laerm;18038;50.166;18.908;2024-03-22T14:13:17;49.83;40.49;57.64;;
68599;Laerm;18038;50.166;18.908;2024-03-22T14:16:20;51.71;41.47;60.50;;
68599;Laerm;18038;50.166;18.908;2024-03-22T14:19:27;51.28;42.06;59.58;;
68599;Laerm;18038;50.166;18.908;2024-03-22T14:22:31;51.37;40.44;59.19;;
68599;Laerm;18038;50.166;18.908;2024-03-22T14:25:35;51.07;39.46;62.55;;
68599;Laerm;18038;50.166;18.908;2024-03-22T14:28:39;50.57;39.53;57.97;;
68599;Laerm;18038;50.166;18.908;2024-03-22T14:31:43;50.85;41.16;58.18;;
68599;Laerm;18038;50.166;18.908;2024-03-22T14:34:49;51.74;42.16;63.33;;
68599;Laerm;18038;50.166;18.908;2024-03-22T14:37:54;49.91;40.58;59.14;;
68599;Laerm;18038;50.166;18.908;2024-03-22T14:40:57;52.05;41.72;63.16;;
68599;Laerm;18038;50.166;18.908;2024-03-22T14:44:02;53.75;39.50;70.60;;
68599;Laerm;18038;50.166;18.908;2024-03-22T14:47:06;51.71;39.20;60.01;;
68599;Laerm;18038;50.166;18.908;2024-03-22T14:50:13;54.96;43.40;68.13;;
68599;Laerm;18038;50.166;18.908;2024-03-22T14:53:17;49.35;39.01;56.55;;
68599;Laerm;18038;50.166;18.908;2024-03-22T14:56:21;50.61;40.77;58.56;;
68599;Laerm;18038;50.166;18.908;2024-03-22T14:59:27;51.71;41.05;74.26;;
68599;Laerm;18038;50.166;18.908;2024-03-22T15:02:32;49.71;40.69;60.84;;
68599;Laerm;18038;50.166;18.908;2024-03-22T15:05:38;49.60;42.23;57.51;;
68599;Laerm;18038;50.166;18.908;2024-03-22T15:08:42;51.22;41.56;64.50;;
68599;Laerm;18038;50.166;18.908;2024-03-22T15:11:45;52.97;40.16;64.24;;
68599;Laerm;18038;50.166;18.908;2024-03-22T15:14:51;50.88;41.33;58.37;;
68599;Laerm;18038;50.166;18.908;2024-03-22T15:17:56;49.93;39.68;61.21;;
68599;Laerm;18038;50.166;18.908;2024-03-22T15:21:03;50.94;40.55;61.95;;
68599;Laerm;18038;50.166;18.908;2024-03-22T15:24:07;49.56;39.65;58.58;;
68599;Laerm;18038;50.166;18.908;2024-03-22T15:27:11;50.75;38.14;61.59;;
68599;Laerm;18038;50.166;18.908;2024-03-22T15:31:54;49.24;38.04;61.91;;
68599;Laerm;18038;50.166;18.908;2024-03-22T15:34:59;50.14;37.77;60.69;;
68599;Laerm;18038;50.166;18.908;2024-03-22T15:38:02;48.83;40.37;56.61;;
68599;Laerm;18038;50.166;18.908;2024-03-22T15:41:07;51.85;38.43;64.64;;
68599;Laerm;18038;50.166;18.908;2024-03-22T15:44:10;56.39;45.31;77.74;;
68599;Laerm;18038;50.166;18.908;2024-03-22T15:47:17;52.40;39.71;61.01;;
68599;Laerm;18038;50.166;18.908;2024-03-22T15:50:20;49.80;38.98;58.51;;
68599;Laerm;18038;50.166;18.908;2024-03-22T15:53:24;50.00;38.39;61.66;;
68599;Laerm;18038;50.166;18.908;2024-03-22T15:56:28;49.78;38.65;60.87;;
68599;Laerm;18038;50.166;18.908;2024-03-22T15:59:32;50.26;39.08;63.61;;
68599;Laerm;18038;50.166;18.908;2024-03-22T16:02:38;49.44;39.23;57.36;;
68599;Laerm;18038;50.166;18.908;2024-03-22T16:05:50;51.12;42.61;58.38;;
68599;Laerm;18038;50.166;18.908;2024-03-22T16:08:54;58.28;41.53;80.78;;
68599;Laerm;18038;50.166;18.908;2024-03-22T16:11:58;50.00;42.20;56.41;;
68599;Laerm;18038;50.166;18.908;2024-03-22T16:15:02;49.82;41.23;58.34;;
68599;Laerm;18038;50.166;18.908;2024-03-22T16:18:09;51.58;42.43;58.97;;
68599;Laerm;18038;50.166;18.908;2024-03-22T16:21:12;49.63;40.62;58.87;;
68599;Laerm;18038;50.166;18.908;2024-03-22T16:24:16;50.34;40.12;57.27;;
68599;Laerm;18038;50.166;18.908;2024-03-22T16:27:22;50.10;40.79;59.55;;
68599;Laerm;18038;50.166;18.908;2024-03-22T16:30:26;51.62;39.81;61.83;;
68599;Laerm;18038;50.166;18.908;2024-03-22T16:33:32;50.88;38.66;64.71;;
68599;Laerm;18038;50.166;18.908;2024-03-22T16:36:36;51.22;39.64;60.92;;
68599;Laerm;18038;50.166;18.908;2024-03-22T16:39:39;50.80;38.14;60.25;;
68599;Laerm;18038;50.166;18.908;2024-03-22T16:42:44;52.85;43.87;65.43;;
68599;Laerm;18038;50.166;18.908;2024-03-22T16:45:48;52.58;41.64;64.21;;
68599;Laerm;18038;50.166;18.908;2024-03-22T16:48:56;50.33;41.44;59.12;;
68599;Laerm;18038;50.166;18.908;2024-03-22T16:52:00;61.23;39.88;80.87;;
68599;Laerm;18038;50.166;18.908;2024-03-22T16:55:05;50.03;40.57;60.12;;
68599;Laerm;18038;50.166;18.908;2024-03-22T16:58:09;51.25;39.10;59.11;;
68599;Laerm;18038;50.166;18.908;2024-03-22T17:01:13;50.19;39.89;63.01;;
68599;Laerm;18038;50.166;18.908;2024-03-22T17:04:19;50.05;40.07;56.87;;
68599;Laerm;18038;50.166;18.908;2024-03-22T17:07:23;51.28;40.75;60.02;;
68599;Laerm;18038;50.166;18.908;2024-03-22T17:10:27;49.51;40.74;55.64;;
68599;Laerm;18038;50.166;18.908;2024-03-22T17:13:31;55.81;39.47;73.69;;
68599;Laerm;18038;50.166;18.908;2024-03-22T17:16:35;52.54;39.84;69.66;;
68599;Laerm;18038;50.166;18.908;2024-03-22T17:19:42;51.38;41.05;61.61;;